sensor_id;sensor_type;location;lat;lon;timestamp;P1;durP1;ratioP1;P2;durP2;ratioP2
23328;SDS011;11836;51.050;3.716;2023-04-15T00:00:15;0.40;;;0.40;;
23328;SDS011;11836;51.050;3.716;2023-04-15T00:02:41;0.90;;;0.50;;
23328;SDS011;11836;51.050;3.716;2023-04-15T00:05:08;0.80;;;0.70;;
23328;SDS011;11836;51.050;3.716;2023-04-15T00:07:36;0.93;;;0.60;;
23328;SDS011;11836;51.050;3.716;2023-04-15T00:10:02;0.80;;;0.60;;
23328;SDS011;11836;51.050;3.716;2023-04-15T00:12:29;0.60;;;0.50;;
23328;SDS011;11836;51.050;3.716;2023-04-15T00:14:55;1.20;;;0.73;;
23328;SDS011;11836;51.050;3.716;2023-04-15T00:17:22;0.65;;;0.40;;
23328;SDS011;11836;51.050;3.716;2023-04-15T00:19:47;1.10;;;0.70;;
23328;SDS011;11836;51.050;3.716;2023-04-15T00:22:13;0.47;;;0.43;;
23328;SDS011;11836;51.050;3.716;2023-04-15T00:24:39;0.55;;;0.50;;
23328;SDS011;11836;51.050;3.716;2023-04-15T00:27:05;0.82;;;0.77;;
23328;SDS011;11836;51.050;3.716;2023-04-15T00:29:31;1.95;;;0.60;;
23328;SDS011;11836;51.050;3.716;2023-04-15T00:31:59;0.80;;;0.60;;
23328;SDS011;11836;51.050;3.716;2023-04-15T00:34:25;0.77;;;0.60;;
23328;SDS011;11836;51.050;3.716;2023-04-15T00:36:55;0.50;;;0.50;;
23328;SDS011;11836;51.050;3.716;2023-04-15T00:39:21;0.57;;;0.57;;
23328;SDS011;11836;51.050;3.716;2023-04-15T00:41:46;1.25;;;0.60;;
23328;SDS011;11836;51.050;3.716;2023-04-15T00:44:13;1.75;;;0.75;;
23328;SDS011;11836;51.050;3.716;2023-04-15T00:46:39;1.33;;;0.70;;
23328;SDS011;11836;51.050;3.716;2023-04-15T00:49:07;1.17;;;0.70;;
23328;SDS011;11836;51.050;3.716;2023-04-15T00:51:32;0.85;;;0.70;;
23328;SDS011;11836;51.050;3.716;2023-04-15T00:54:04;1.27;;;0.70;;
23328;SDS011;11836;51.050;3.716;2023-04-15T00:56:34;0.85;;;0.65;;
23328;SDS011;11836;51.050;3.716;2023-04-15T00:59:00;0.80;;;0.60;;
23328;SDS011;11836;51.050;3.716;2023-04-15T01:01:26;0.85;;;0.70;;
23328;SDS011;11836;51.050;3.716;2023-04-15T01:03:54;0.55;;;0.55;;
23328;SDS011;11836;51.050;3.716;2023-04-15T01:06:22;0.65;;;0.65;;
23328;SDS011;11836;51.050;3.716;2023-04-15T01:08:48;1.30;;;0.90;;
23328;SDS011;11836;51.050;3.716;2023-04-15T01:11:14;0.45;;;0.40;;
23328;SDS011;11836;51.050;3.716;2023-04-15T01:13:40;0.85;;;0.80;;
23328;SDS011;11836;51.050;3.716;2023-04-15T01:16:07;1.17;;;1.00;;
23328;SDS011;11836;51.050;3.716;2023-04-15T01:18:33;1.30;;;0.95;;
23328;SDS011;11836;51.050;3.716;2023-04-15T01:21:03;0.77;;;0.60;;
23328;SDS011;11836;51.050;3.716;2023-04-15T01:23:29;1.25;;;0.90;;
23328;SDS011;11836;51.050;3.716;2023-04-15T01:25:56;0.77;;;0.70;;
23328;SDS011;11836;51.050;3.716;2023-04-15T01:28:23;0.88;;;0.80;;
23328;SDS011;11836;51.050;3.716;2023-04-15T01:30:49;1.05;;;0.93;;
23328;SDS011;11836;51.050;3.716;2023-04-15T01:33:15;0.70;;;0.70;;
23328;SDS011;11836;51.050;3.716;2023-04-15T01:35:41;1.20;;;0.93;;
23328;SDS011;11836;51.050;3.716;2023-04-15T01:38:10;0.55;;;0.50;;
23328;SDS011;11836;51.050;3.716;2023-04-15T01:40:36;1.85;;;0.70;;
23328;SDS011;11836;51.050;3.716;2023-04-15T01:43:02;0.98;;;0.80;;
23328;SDS011;11836;51.050;3.716;2023-04-15T01:45:28;1.05;;;0.90;;
23328;SDS011;11836;51.050;3.716;2023-04-15T01:47:54;1.65;;;0.90;;
23328;SDS011;11836;51.050;3.716;2023-04-15T01:50:20;1.23;;;0.85;;
23328;SDS011;11836;51.050;3.716;2023-04-15T01:52:46;1.90;;;0.85;;
23328;SDS011;11836;51.050;3.716;2023-04-15T01:55:13;0.85;;;0.60;;
23328;SDS011;11836;51.050;3.716;2023-04-15T01:57:39;1.92;;;1.10;;
23328;SDS011;11836;51.050;3.716;2023-04-15T02:00:05;1.80;;;0.90;;
23328;SDS011;11836;51.050;3.716;2023-04-15T02:02:34;1.08;;;0.98;;
23328;SDS011;11836;51.050;3.716;2023-04-15T02:04:59;1.08;;;0.77;;
23328;SDS011;11836;51.050;3.716;2023-04-15T02:07:25;1.15;;;0.70;;
23328;SDS011;11836;51.050;3.716;2023-04-15T02:09:52;1.35;;;0.73;;
23328;SDS011;11836;51.050;3.716;2023-04-15T02:12:22;1.35;;;0.75;;
23328;SDS011;11836;51.050;3.716;2023-04-15T02:14:48;0.68;;;0.57;;
23328;SDS011;11836;51.050;3.716;2023-04-15T02:17:13;0.63;;;0.52;;
23328;SDS011;11836;51.050;3.716;2023-04-15T02:19:39;2.90;;;0.80;;
23328;SDS011;11836;51.050;3.716;2023-04-15T02:22:05;0.63;;;0.52;;
23328;SDS011;11836;51.050;3.716;2023-04-15T02:24:32;0.70;;;0.60;;
23328;SDS011;11836;51.050;3.716;2023-04-15T02:26:58;1.10;;;0.82;;
23328;SDS011;11836;51.050;3.716;2023-04-15T02:29:25;0.60;;;0.60;;
23328;SDS011;11836;51.050;3.716;2023-04-15T02:31:50;0.60;;;0.60;;
23328;SDS011;11836;51.050;3.716;2023-04-15T02:34:16;0.93;;;0.75;;
23328;SDS011;11836;51.050;3.716;2023-04-15T02:36:41;0.50;;;0.50;;
23328;SDS011;11836;51.050;3.716;2023-04-15T02:39:07;2.17;;;0.47;;
23328;SDS011;11836;51.050;3.716;2023-04-15T02:41:33;1.13;;;0.77;;
23328;SDS011;11836;51.050;3.716;2023-04-15T02:43:59;1.35;;;0.90;;
23328;SDS011;11836;51.050;3.716;2023-04-15T02:46:25;1.55;;;0.68;;
23328;SDS011;11836;51.050;3.716;2023-04-15T02:48:51;0.73;;;0.68;;
23328;SDS011;11836;51.050;3.716;2023-04-15T02:51:18;0.80;;;0.55;;
23328;SDS011;11836;51.050;3.716;2023-04-15T02:53:46;1.52;;;0.65;;
23328;SDS011;11836;51.050;3.716;2023-04-15T02:56:12;0.93;;;0.70;;
23328;SDS011;11836;51.050;3.716;2023-04-15T02:58:41;0.70;;;0.70;;
23328;SDS011;11836;51.050;3.716;2023-04-15T03:01:07;0.70;;;0.57;;
23328;SDS011;11836;51.050;3.716;2023-04-15T03:03:33;1.58;;;0.70;;
23328;SDS011;11836;51.050;3.716;2023-04-15T03:05:59;0.90;;;0.73;;
23328;SDS011;11836;51.050;3.716;2023-04-15T03:08:25;0.60;;;0.60;;
23328;SDS011;11836;51.050;3.716;2023-04-15T03:10:50;1.13;;;0.75;;
23328;SDS011;11836;51.050;3.716;2023-04-15T03:13:17;1.20;;;1.10;;
23328;SDS011;11836;51.050;3.716;2023-04-15T03:15:45;1.17;;;1.08;;
23328;SDS011;11836;51.050;3.716;2023-04-15T03:18:11;1.55;;;1.02;;
23328;SDS011;11836;51.050;3.716;2023-04-15T03:20:44;0.75;;;0.52;;
23328;SDS011;11836;51.050;3.716;2023-04-15T03:23:11;1.23;;;1.00;;
23328;SDS011;11836;51.050;3.716;2023-04-15T03:25:36;0.75;;;0.75;;
23328;SDS011;11836;51.050;3.716;2023-04-15T03:28:02;0.57;;;0.57;;
23328;SDS011;11836;51.050;3.716;2023-04-15T03:30:28;1.73;;;0.70;;
23328;SDS011;11836;51.050;3.716;2023-04-15T03:32:53;0.98;;;0.75;;
23328;SDS011;11836;51.050;3.716;2023-04-15T03:35:22;1.58;;;1.17;;
23328;SDS011;11836;51.050;3.716;2023-04-15T03:37:48;2.15;;;1.20;;
23328;SDS011;11836;51.050;3.716;2023-04-15T03:40:13;2.78;;;1.50;;
23328;SDS011;11836;51.050;3.716;2023-04-15T03:42:43;1.73;;;0.90;;
23328;SDS011;11836;51.050;3.716;2023-04-15T03:45:09;1.00;;;0.80;;
23328;SDS011;11836;51.050;3.716;2023-04-15T03:47:35;1.20;;;0.88;;
23328;SDS011;11836;51.050;3.716;2023-04-15T03:50:01;1.40;;;1.13;;
23328;SDS011;11836;51.050;3.716;2023-04-15T03:52:26;1.90;;;0.90;;
23328;SDS011;11836;51.050;3.716;2023-04-15T03:54:53;1.15;;;0.98;;
23328;SDS011;11836;51.050;3.716;2023-04-15T03:57:20;1.25;;;0.90;;
23328;SDS011;11836;51.050;3.716;2023-04-15T03:59:46;1.42;;;0.80;;
23328;SDS011;11836;51.050;3.716;2023-04-15T04:02:16;1.27;;;1.17;;
23328;SDS011;11836;51.050;3.716;2023-04-15T04:04:42;0.88;;;0.73;;
23328;SDS011;11836;51.050;3.716;2023-04-15T04:07:14;1.25;;;0.80;;
23328;SDS011;11836;51.050;3.716;2023-04-15T04:09:41;2.15;;;1.35;;
23328;SDS011;11836;51.050;3.716;2023-04-15T04:12:06;2.03;;;1.23;;
23328;SDS011;11836;51.050;3.716;2023-04-15T04:14:32;3.60;;;1.30;;
23328;SDS011;11836;51.050;3.716;2023-04-15T04:16:58;1.45;;;1.35;;
23328;SDS011;11836;51.050;3.716;2023-04-15T04:19:26;2.00;;;1.10;;
23328;SDS011;11836;51.050;3.716;2023-04-15T04:21:51;2.22;;;1.40;;
23328;SDS011;11836;51.050;3.716;2023-04-15T04:24:17;1.92;;;1.70;;
23328;SDS011;11836;51.050;3.716;2023-04-15T04:26:43;2.65;;;1.45;;
23328;SDS011;11836;51.050;3.716;2023-04-15T04:29:08;2.53;;;1.60;;
23328;SDS011;11836;51.050;3.716;2023-04-15T04:31:34;1.40;;;1.13;;
23328;SDS011;11836;51.050;3.716;2023-04-15T04:34:00;2.00;;;1.50;;
23328;SDS011;11836;51.050;3.716;2023-04-15T04:36:27;1.98;;;1.40;;
23328;SDS011;11836;51.050;3.716;2023-04-15T04:38:52;0.88;;;0.88;;
23328;SDS011;11836;51.050;3.716;2023-04-15T04:41:19;2.53;;;1.00;;
23328;SDS011;11836;51.050;3.716;2023-04-15T04:43:45;0.80;;;0.80;;
23328;SDS011;11836;51.050;3.716;2023-04-15T04:46:11;3.67;;;1.48;;
23328;SDS011;11836;51.050;3.716;2023-04-15T04:48:37;2.22;;;1.17;;
23328;SDS011;11836;51.050;3.716;2023-04-15T04:51:03;2.90;;;1.00;;
23328;SDS011;11836;51.050;3.716;2023-04-15T04:53:29;1.00;;;0.90;;
23328;SDS011;11836;51.050;3.716;2023-04-15T04:55:55;1.40;;;0.82;;
23328;SDS011;11836;51.050;3.716;2023-04-15T04:58:20;1.83;;;1.13;;
23328;SDS011;11836;51.050;3.716;2023-04-15T05:00:47;0.82;;;0.77;;
23328;SDS011;11836;51.050;3.716;2023-04-15T05:03:13;1.52;;;0.63;;
23328;SDS011;11836;51.050;3.716;2023-04-15T05:05:39;3.53;;;1.08;;
23328;SDS011;11836;51.050;3.716;2023-04-15T05:08:05;1.83;;;0.80;;
23328;SDS011;11836;51.050;3.716;2023-04-15T05:10:31;2.03;;;1.02;;
23328;SDS011;11836;51.050;3.716;2023-04-15T05:12:57;1.70;;;1.00;;
23328;SDS011;11836;51.050;3.716;2023-04-15T05:15:23;1.30;;;1.00;;
23328;SDS011;11836;51.050;3.716;2023-04-15T05:17:49;0.82;;;0.60;;
23328;SDS011;11836;51.050;3.716;2023-04-15T05:20:15;1.27;;;0.70;;
23328;SDS011;11836;51.050;3.716;2023-04-15T05:22:42;1.40;;;1.08;;
23328;SDS011;11836;51.050;3.716;2023-04-15T05:25:08;0.80;;;0.80;;
23328;SDS011;11836;51.050;3.716;2023-04-15T05:27:34;1.17;;;0.80;;
23328;SDS011;11836;51.050;3.716;2023-04-15T05:30:00;1.92;;;0.80;;
23328;SDS011;11836;51.050;3.716;2023-04-15T05:32:26;0.90;;;0.80;;
23328;SDS011;11836;51.050;3.716;2023-04-15T05:34:51;1.30;;;1.00;;
23328;SDS011;11836;51.050;3.716;2023-04-15T05:37:17;1.17;;;0.80;;
23328;SDS011;11836;51.050;3.716;2023-04-15T05:39:45;1.35;;;0.80;;
23328;SDS011;11836;51.050;3.716;2023-04-15T05:42:10;1.10;;;0.90;;
23328;SDS011;11836;51.050;3.716;2023-04-15T05:44:37;1.25;;;0.90;;
23328;SDS011;11836;51.050;3.716;2023-04-15T05:47:02;0.63;;;0.63;;
23328;SDS011;11836;51.050;3.716;2023-04-15T05:49:29;0.70;;;0.70;;
23328;SDS011;11836;51.050;3.716;2023-04-15T05:51:55;0.70;;;0.57;;
23328;SDS011;11836;51.050;3.716;2023-04-15T05:54:21;1.33;;;0.95;;
23328;SDS011;11836;51.050;3.716;2023-04-15T05:56:48;0.90;;;0.70;;
23328;SDS011;11836;51.050;3.716;2023-04-15T05:59:13;1.00;;;0.70;;
23328;SDS011;11836;51.050;3.716;2023-04-15T06:01:39;2.45;;;0.95;;
23328;SDS011;11836;51.050;3.716;2023-04-15T06:04:05;1.52;;;0.90;;
23328;SDS011;11836;51.050;3.716;2023-04-15T06:06:31;0.98;;;0.73;;
23328;SDS011;11836;51.050;3.716;2023-04-15T06:08:58;1.80;;;1.00;;
23328;SDS011;11836;51.050;3.716;2023-04-15T06:11:24;1.98;;;0.95;;
23328;SDS011;11836;51.050;3.716;2023-04-15T06:13:50;2.05;;;0.90;;
23328;SDS011;11836;51.050;3.716;2023-04-15T06:16:16;2.00;;;1.10;;
23328;SDS011;11836;51.050;3.716;2023-04-15T06:18:42;1.35;;;0.77;;
23328;SDS011;11836;51.050;3.716;2023-04-15T06:21:07;0.85;;;0.75;;
23328;SDS011;11836;51.050;3.716;2023-04-15T06:23:34;1.75;;;0.80;;
23328;SDS011;11836;51.050;3.716;2023-04-15T06:26:00;1.05;;;0.90;;
23328;SDS011;11836;51.050;3.716;2023-04-15T06:28:26;1.45;;;1.02;;
23328;SDS011;11836;51.050;3.716;2023-04-15T06:30:52;0.88;;;0.63;;
23328;SDS011;11836;51.050;3.716;2023-04-15T06:33:18;1.42;;;0.73;;
23328;SDS011;11836;51.050;3.716;2023-04-15T06:35:44;2.13;;;0.70;;
23328;SDS011;11836;51.050;3.716;2023-04-15T06:38:10;4.85;;;0.90;;
23328;SDS011;11836;51.050;3.716;2023-04-15T06:40:35;2.00;;;1.05;;
23328;SDS011;11836;51.050;3.716;2023-04-15T06:43:01;1.63;;;0.90;;
23328;SDS011;11836;51.050;3.716;2023-04-15T06:45:28;1.88;;;1.10;;
23328;SDS011;11836;51.050;3.716;2023-04-15T06:47:55;2.03;;;0.93;;
23328;SDS011;11836;51.050;3.716;2023-04-15T06:50:20;2.88;;;1.27;;
23328;SDS011;11836;51.050;3.716;2023-04-15T06:52:46;3.95;;;1.45;;
23328;SDS011;11836;51.050;3.716;2023-04-15T06:55:12;4.65;;;1.95;;
23328;SDS011;11836;51.050;3.716;2023-04-15T06:57:38;4.57;;;2.20;;
23328;SDS011;11836;51.050;3.716;2023-04-15T07:00:04;5.18;;;2.08;;
23328;SDS011;11836;51.050;3.716;2023-04-15T07:02:32;3.95;;;1.85;;
23328;SDS011;11836;51.050;3.716;2023-04-15T07:04:59;5.20;;;1.70;;
23328;SDS011;11836;51.050;3.716;2023-04-15T07:07:25;3.45;;;1.70;;
23328;SDS011;11836;51.050;3.716;2023-04-15T07:09:51;4.28;;;1.63;;
23328;SDS011;11836;51.050;3.716;2023-04-15T07:12:20;5.53;;;1.85;;
23328;SDS011;11836;51.050;3.716;2023-04-15T07:14:46;6.18;;;1.88;;
23328;SDS011;11836;51.050;3.716;2023-04-15T07:17:12;4.22;;;2.08;;
23328;SDS011;11836;51.050;3.716;2023-04-15T07:19:37;4.18;;;2.05;;
23328;SDS011;11836;51.050;3.716;2023-04-15T07:22:03;4.32;;;1.98;;
23328;SDS011;11836;51.050;3.716;2023-04-15T07:24:29;3.03;;;1.85;;
23328;SDS011;11836;51.050;3.716;2023-04-15T07:26:55;3.28;;;2.10;;
23328;SDS011;11836;51.050;3.716;2023-04-15T07:29:24;6.20;;;1.90;;
23328;SDS011;11836;51.050;3.716;2023-04-15T07:31:51;4.38;;;2.60;;
23328;SDS011;11836;51.050;3.716;2023-04-15T07:34:17;4.35;;;2.40;;
23328;SDS011;11836;51.050;3.716;2023-04-15T07:36:44;4.57;;;2.08;;
23328;SDS011;11836;51.050;3.716;2023-04-15T07:39:10;5.63;;;2.78;;
23328;SDS011;11836;51.050;3.716;2023-04-15T07:41:36;5.72;;;2.70;;
23328;SDS011;11836;51.050;3.716;2023-04-15T07:44:02;8.05;;;3.15;;
23328;SDS011;11836;51.050;3.716;2023-04-15T07:46:27;7.28;;;3.20;;
23328;SDS011;11836;51.050;3.716;2023-04-15T07:48:53;7.57;;;3.00;;
23328;SDS011;11836;51.050;3.716;2023-04-15T07:51:19;4.72;;;2.63;;
23328;SDS011;11836;51.050;3.716;2023-04-15T07:53:45;7.05;;;3.25;;
23328;SDS011;11836;51.050;3.716;2023-04-15T07:56:13;9.13;;;4.03;;
23328;SDS011;11836;51.050;3.716;2023-04-15T07:58:38;10.98;;;5.40;;
23328;SDS011;11836;51.050;3.716;2023-04-15T08:01:05;10.45;;;4.75;;
23328;SDS011;11836;51.050;3.716;2023-04-15T08:03:32;7.75;;;4.40;;
23328;SDS011;11836;51.050;3.716;2023-04-15T08:05:58;8.82;;;3.45;;
23328;SDS011;11836;51.050;3.716;2023-04-15T08:08:24;4.50;;;2.50;;
23328;SDS011;11836;51.050;3.716;2023-04-15T08:10:51;6.13;;;3.25;;
23328;SDS011;11836;51.050;3.716;2023-04-15T08:13:17;5.90;;;2.78;;
23328;SDS011;11836;51.050;3.716;2023-04-15T08:15:52;7.70;;;3.38;;
23328;SDS011;11836;51.050;3.716;2023-04-15T08:18:38;6.30;;;2.90;;
23328;SDS011;11836;51.050;3.716;2023-04-15T08:21:03;5.45;;;2.35;;
23328;SDS011;11836;51.050;3.716;2023-04-15T08:23:30;8.25;;;2.60;;
23328;SDS011;11836;51.050;3.716;2023-04-15T08:25:59;6.15;;;3.47;;
23328;SDS011;11836;51.050;3.716;2023-04-15T08:28:26;5.47;;;2.75;;
23328;SDS011;11836;51.050;3.716;2023-04-15T08:30:52;6.28;;;2.30;;
23328;SDS011;11836;51.050;3.716;2023-04-15T08:33:18;3.92;;;2.17;;
23328;SDS011;11836;51.050;3.716;2023-04-15T08:35:43;5.03;;;2.20;;
23328;SDS011;11836;51.050;3.716;2023-04-15T08:38:10;4.38;;;1.80;;
23328;SDS011;11836;51.050;3.716;2023-04-15T08:40:40;4.57;;;1.98;;
23328;SDS011;11836;51.050;3.716;2023-04-15T08:43:07;3.70;;;1.95;;
23328;SDS011;11836;51.050;3.716;2023-04-15T08:45:36;2.85;;;1.90;;
23328;SDS011;11836;51.050;3.716;2023-04-15T08:48:03;5.57;;;2.38;;
23328;SDS011;11836;51.050;3.716;2023-04-15T08:50:30;6.90;;;2.83;;
23328;SDS011;11836;51.050;3.716;2023-04-15T08:53:00;6.13;;;2.65;;
23328;SDS011;11836;51.050;3.716;2023-04-15T08:55:29;6.30;;;3.40;;
23328;SDS011;11836;51.050;3.716;2023-04-15T08:58:00;5.35;;;3.10;;
23328;SDS011;11836;51.050;3.716;2023-04-15T09:00:27;7.22;;;2.85;;
23328;SDS011;11836;51.050;3.716;2023-04-15T09:02:54;4.93;;;2.85;;
23328;SDS011;11836;51.050;3.716;2023-04-15T09:05:20;7.20;;;3.08;;
23328;SDS011;11836;51.050;3.716;2023-04-15T09:07:49;5.80;;;3.25;;
23328;SDS011;11836;51.050;3.716;2023-04-15T09:10:15;4.85;;;2.85;;
23328;SDS011;11836;51.050;3.716;2023-04-15T09:12:41;5.40;;;2.90;;
23328;SDS011;11836;51.050;3.716;2023-04-15T09:15:08;5.85;;;3.15;;
23328;SDS011;11836;51.050;3.716;2023-04-15T09:17:40;5.60;;;2.90;;
23328;SDS011;11836;51.050;3.716;2023-04-15T09:20:16;9.40;;;3.65;;
23328;SDS011;11836;51.050;3.716;2023-04-15T09:22:45;9.10;;;4.05;;
23328;SDS011;11836;51.050;3.716;2023-04-15T09:27:48;8.25;;;3.50;;
23328;SDS011;11836;51.050;3.716;2023-04-15T09:30:17;7.75;;;4.18;;
23328;SDS011;11836;51.050;3.716;2023-04-15T09:32:49;6.05;;;3.15;;
23328;SDS011;11836;51.050;3.716;2023-04-15T09:35:16;6.90;;;3.45;;
23328;SDS011;11836;51.050;3.716;2023-04-15T09:37:42;7.70;;;3.80;;
23328;SDS011;11836;51.050;3.716;2023-04-15T09:40:08;7.38;;;3.90;;
23328;SDS011;11836;51.050;3.716;2023-04-15T09:42:35;10.25;;;3.88;;
23328;SDS011;11836;51.050;3.716;2023-04-15T09:45:09;7.25;;;3.88;;
23328;SDS011;11836;51.050;3.716;2023-04-15T09:47:36;7.53;;;3.60;;
23328;SDS011;11836;51.050;3.716;2023-04-15T09:50:05;7.90;;;3.58;;
23328;SDS011;11836;51.050;3.716;2023-04-15T09:52:39;7.38;;;3.25;;
23328;SDS011;11836;51.050;3.716;2023-04-15T09:55:07;6.55;;;3.58;;
23328;SDS011;11836;51.050;3.716;2023-04-15T09:57:34;34.75;;;16.10;;
23328;SDS011;11836;51.050;3.716;2023-04-15T10:00:02;13.27;;;7.00;;
23328;SDS011;11836;51.050;3.716;2023-04-15T10:02:29;14.65;;;5.38;;
23328;SDS011;11836;51.050;3.716;2023-04-15T10:04:55;14.68;;;6.57;;
23328;SDS011;11836;51.050;3.716;2023-04-15T10:07:21;28.05;;;8.82;;
23328;SDS011;11836;51.050;3.716;2023-04-15T10:09:48;28.65;;;10.30;;
23328;SDS011;11836;51.050;3.716;2023-04-15T10:12:17;25.50;;;9.48;;
23328;SDS011;11836;51.050;3.716;2023-04-15T10:14:44;27.85;;;8.98;;
23328;SDS011;11836;51.050;3.716;2023-04-15T10:17:16;23.38;;;9.25;;
23328;SDS011;11836;51.050;3.716;2023-04-15T10:19:45;30.90;;;11.02;;
23328;SDS011;11836;51.050;3.716;2023-04-15T10:22:12;22.48;;;9.57;;
23328;SDS011;11836;51.050;3.716;2023-04-15T10:24:39;19.40;;;8.07;;
23328;SDS011;11836;51.050;3.716;2023-04-15T10:27:05;22.13;;;8.85;;
23328;SDS011;11836;51.050;3.716;2023-04-15T10:29:32;20.65;;;8.77;;
23328;SDS011;11836;51.050;3.716;2023-04-15T10:32:02;20.10;;;8.57;;
23328;SDS011;11836;51.050;3.716;2023-04-15T10:34:29;23.70;;;8.82;;
23328;SDS011;11836;51.050;3.716;2023-04-15T10:37:00;18.42;;;7.78;;
23328;SDS011;11836;51.050;3.716;2023-04-15T10:39:38;20.30;;;7.28;;
23328;SDS011;11836;51.050;3.716;2023-04-15T10:42:14;20.77;;;7.25;;
23328;SDS011;11836;51.050;3.716;2023-04-15T10:44:43;15.90;;;5.80;;
23328;SDS011;11836;51.050;3.716;2023-04-15T10:47:20;15.43;;;6.10;;
23328;SDS011;11836;51.050;3.716;2023-04-15T10:49:50;14.55;;;6.13;;
23328;SDS011;11836;51.050;3.716;2023-04-15T10:52:25;14.93;;;5.80;;
23328;SDS011;11836;51.050;3.716;2023-04-15T10:55:11;15.68;;;5.32;;
23328;SDS011;11836;51.050;3.716;2023-04-15T10:57:37;15.73;;;5.47;;
23328;SDS011;11836;51.050;3.716;2023-04-15T11:05:06;13.50;;;5.13;;
23328;SDS011;11836;51.050;3.716;2023-04-15T11:09:58;11.70;;;5.25;;
23328;SDS011;11836;51.050;3.716;2023-04-15T11:12:35;17.65;;;5.35;;
23328;SDS011;11836;51.050;3.716;2023-04-15T11:15:23;10.55;;;4.47;;
23328;SDS011;11836;51.050;3.716;2023-04-15T11:17:52;9.98;;;4.28;;
23328;SDS011;11836;51.050;3.716;2023-04-15T11:20:18;8.27;;;3.63;;
23328;SDS011;11836;51.050;3.716;2023-04-15T11:22:47;11.40;;;4.47;;
23328;SDS011;11836;51.050;3.716;2023-04-15T11:25:35;8.55;;;3.75;;
23328;SDS011;11836;51.050;3.716;2023-04-15T11:28:02;11.73;;;4.30;;
23328;SDS011;11836;51.050;3.716;2023-04-15T11:30:33;8.32;;;4.30;;
23328;SDS011;11836;51.050;3.716;2023-04-15T11:33:01;9.95;;;4.43;;
23328;SDS011;11836;51.050;3.716;2023-04-15T11:35:28;6.25;;;3.25;;
23328;SDS011;11836;51.050;3.716;2023-04-15T11:37:54;8.45;;;3.42;;
23328;SDS011;11836;51.050;3.716;2023-04-15T11:40:24;10.02;;;3.70;;
23328;SDS011;11836;51.050;3.716;2023-04-15T11:43:06;8.57;;;3.55;;
23328;SDS011;11836;51.050;3.716;2023-04-15T11:45:34;7.82;;;3.78;;
23328;SDS011;11836;51.050;3.716;2023-04-15T11:48:07;6.57;;;2.67;;
23328;SDS011;11836;51.050;3.716;2023-04-15T11:50:34;8.55;;;3.13;;
23328;SDS011;11836;51.050;3.716;2023-04-15T11:53:02;5.47;;;2.80;;
23328;SDS011;11836;51.050;3.716;2023-04-15T11:55:29;5.88;;;3.00;;
23328;SDS011;11836;51.050;3.716;2023-04-15T11:58:05;5.57;;;2.95;;
23328;SDS011;11836;51.050;3.716;2023-04-15T12:00:35;6.80;;;3.35;;
23328;SDS011;11836;51.050;3.716;2023-04-15T12:03:18;4.20;;;2.85;;
23328;SDS011;11836;51.050;3.716;2023-04-15T12:08:48;5.70;;;2.90;;
23328;SDS011;11836;51.050;3.716;2023-04-15T12:11:15;6.93;;;3.25;;
23328;SDS011;11836;51.050;3.716;2023-04-15T12:13:47;6.75;;;3.35;;
23328;SDS011;11836;51.050;3.716;2023-04-15T12:16:17;7.63;;;3.95;;
23328;SDS011;11836;51.050;3.716;2023-04-15T12:18:46;6.40;;;3.40;;
23328;SDS011;11836;51.050;3.716;2023-04-15T12:21:23;5.20;;;3.37;;
23328;SDS011;11836;51.050;3.716;2023-04-15T12:23:50;7.43;;;3.53;;
23328;SDS011;11836;51.050;3.716;2023-04-15T12:26:18;5.78;;;2.83;;
23328;SDS011;11836;51.050;3.716;2023-04-15T12:29:03;6.18;;;3.17;;
23328;SDS011;11836;51.050;3.716;2023-04-15T12:31:31;8.52;;;3.15;;
23328;SDS011;11836;51.050;3.716;2023-04-15T12:33:57;7.35;;;3.53;;
23328;SDS011;11836;51.050;3.716;2023-04-15T12:36:25;6.57;;;2.88;;
23328;SDS011;11836;51.050;3.716;2023-04-15T12:38:52;5.35;;;3.10;;
23328;SDS011;11836;51.050;3.716;2023-04-15T12:41:18;5.20;;;2.90;;
23328;SDS011;11836;51.050;3.716;2023-04-15T12:43:45;8.52;;;3.30;;
23328;SDS011;11836;51.050;3.716;2023-04-15T12:46:12;5.40;;;3.00;;
23328;SDS011;11836;51.050;3.716;2023-04-15T12:48:37;5.68;;;3.20;;
23328;SDS011;11836;51.050;3.716;2023-04-15T12:51:04;6.63;;;3.25;;
23328;SDS011;11836;51.050;3.716;2023-04-15T12:53:30;6.00;;;2.92;;
23328;SDS011;11836;51.050;3.716;2023-04-15T12:55:56;5.68;;;2.75;;
23328;SDS011;11836;51.050;3.716;2023-04-15T12:58:21;6.28;;;2.72;;
23328;SDS011;11836;51.050;3.716;2023-04-15T13:00:47;5.53;;;2.85;;
23328;SDS011;11836;51.050;3.716;2023-04-15T13:03:13;4.57;;;2.65;;
23328;SDS011;11836;51.050;3.716;2023-04-15T13:05:40;4.97;;;2.63;;
23328;SDS011;11836;51.050;3.716;2023-04-15T13:10:34;3.63;;;2.45;;
23328;SDS011;11836;51.050;3.716;2023-04-15T13:13:04;5.50;;;2.30;;
23328;SDS011;11836;51.050;3.716;2023-04-15T13:15:29;3.60;;;2.28;;
23328;SDS011;11836;51.050;3.716;2023-04-15T13:17:55;4.03;;;2.30;;
23328;SDS011;11836;51.050;3.716;2023-04-15T13:20:21;3.63;;;2.25;;
23328;SDS011;11836;51.050;3.716;2023-04-15T13:22:47;3.97;;;2.53;;
23328;SDS011;11836;51.050;3.716;2023-04-15T13:25:13;4.22;;;2.35;;
23328;SDS011;11836;51.050;3.716;2023-04-15T13:27:38;3.75;;;2.20;;
23328;SDS011;11836;51.050;3.716;2023-04-15T13:30:04;3.53;;;1.85;;
23328;SDS011;11836;51.050;3.716;2023-04-15T13:32:31;3.05;;;2.47;;
23328;SDS011;11836;51.050;3.716;2023-04-15T13:34:57;4.45;;;2.40;;
23328;SDS011;11836;51.050;3.716;2023-04-15T13:37:26;3.30;;;1.92;;
23328;SDS011;11836;51.050;3.716;2023-04-15T13:39:52;3.47;;;2.07;;
23328;SDS011;11836;51.050;3.716;2023-04-15T13:42:19;6.30;;;2.17;;
23328;SDS011;11836;51.050;3.716;2023-04-15T13:44:45;5.07;;;2.35;;
23328;SDS011;11836;51.050;3.716;2023-04-15T13:47:10;4.55;;;1.98;;
23328;SDS011;11836;51.050;3.716;2023-04-15T13:49:37;5.13;;;2.08;;
23328;SDS011;11836;51.050;3.716;2023-04-15T13:52:02;3.38;;;2.65;;
23328;SDS011;11836;51.050;3.716;2023-04-15T13:54:28;5.60;;;2.83;;
23328;SDS011;11836;51.050;3.716;2023-04-15T13:56:53;4.35;;;3.05;;
23328;SDS011;11836;51.050;3.716;2023-04-15T13:59:21;4.95;;;3.08;;
23328;SDS011;11836;51.050;3.716;2023-04-15T14:01:47;4.22;;;3.17;;
23328;SDS011;11836;51.050;3.716;2023-04-15T14:04:13;4.90;;;3.08;;
23328;SDS011;11836;51.050;3.716;2023-04-15T14:06:39;5.97;;;3.03;;
23328;SDS011;11836;51.050;3.716;2023-04-15T14:09:05;5.57;;;3.28;;
23328;SDS011;11836;51.050;3.716;2023-04-15T14:11:31;6.78;;;3.35;;
23328;SDS011;11836;51.050;3.716;2023-04-15T14:14:00;4.13;;;2.72;;
23328;SDS011;11836;51.050;3.716;2023-04-15T14:16:26;5.65;;;3.30;;
23328;SDS011;11836;51.050;3.716;2023-04-15T14:18:52;5.50;;;3.33;;
23328;SDS011;11836;51.050;3.716;2023-04-15T14:21:18;4.43;;;3.33;;
23328;SDS011;11836;51.050;3.716;2023-04-15T14:23:43;4.20;;;2.80;;
23328;SDS011;11836;51.050;3.716;2023-04-15T14:26:09;5.00;;;3.28;;
23328;SDS011;11836;51.050;3.716;2023-04-15T14:28:35;4.07;;;2.90;;
23328;SDS011;11836;51.050;3.716;2023-04-15T14:31:02;5.20;;;3.53;;
23328;SDS011;11836;51.050;3.716;2023-04-15T14:33:28;4.38;;;3.22;;
23328;SDS011;11836;51.050;3.716;2023-04-15T14:35:53;5.70;;;3.33;;
23328;SDS011;11836;51.050;3.716;2023-04-15T14:38:19;6.45;;;3.45;;
23328;SDS011;11836;51.050;3.716;2023-04-15T14:40:46;5.45;;;3.05;;
23328;SDS011;11836;51.050;3.716;2023-04-15T14:43:12;4.72;;;3.10;;
23328;SDS011;11836;51.050;3.716;2023-04-15T14:45:38;5.60;;;3.00;;
23328;SDS011;11836;51.050;3.716;2023-04-15T14:48:03;2.60;;;1.90;;
23328;SDS011;11836;51.050;3.716;2023-04-15T14:50:30;2.25;;;1.60;;
23328;SDS011;11836;51.050;3.716;2023-04-15T14:52:57;2.80;;;1.75;;
23328;SDS011;11836;51.050;3.716;2023-04-15T14:55:22;3.60;;;1.88;;
23328;SDS011;11836;51.050;3.716;2023-04-15T14:57:48;3.50;;;1.75;;
23328;SDS011;11836;51.050;3.716;2023-04-15T15:00:14;3.30;;;2.08;;